Rock Creek, WV

9:50 PM EST on December 24, 2014 (GMT -0500)
Yeager Airport | Change Station
CLOSE
Current Station
Airport
Location: Charleston,
Elevation: 981 ft
Nearby Weather Stations

Elev 981 ft 38.38 °N, 81.59 °W | Updated 56 minutes ago

Overcast
Overcast
47 °F
Feels Like 47 °F
N
21
Wind Variable Wind from WSW
Gusts 29 mph

Today
High -- | Low -- °F
--% Chance of Precip.
Yesterday
High -- | Low -- °F
Precip. -- in
7:39 AM 5:12 PM
Waxing Crescent, 12% visible
Pressure 29.68 in
Visibility 10.0 miles
Clouds Overcast 1700 ft
Dew Point 40 °F
Humidity 77%
Rainfall 0.17 in
Snow Depth Not available.
UV 0 out of 12
Pollen .10 out of 12
Air Quality Not available.
Flu Activity Not available.
METAR KCRW 250154Z 24018G25KT 10SM -RA OVC017 08/04 A2968 RMK AO2 PK WND 24030/0115 PRESRR SLP049 INTMT -RA P0000 T00830044

More Conditions Fewer Conditions

Pressure 29.68 in
Visibility 10.0 miles
Clouds Overcast 1700 ft
Dew Point 40 °F
Humidity 77%
Rainfall 0.17 in
Snow Depth Not available.
UV 0 out of 12
Pollen .10 out of 12
Air Quality Not available.
Flu Activity Not available.
METAR KCRW 250154Z 24018G25KT 10SM -RA OVC017 08/04 A2968 RMK AO2 PK WND 24030/0115 PRESRR SLP049 INTMT -RA P0000 T00830044

More Conditions Fewer Conditions

10-Day Weather Forecast

Almanac

Astronomy

Dec. 24, 2014 Rise Set
Actual Time
Civil Twilight
Nautical Twilight
Astronomical Twilight
Moon
Length of Visible Light
Length of Day
Tomorrow will be .
, % of the Moon is Illuminated

Today's Extremes

State Highs State Lows

Community

WunderPhotos

Upload Photos

1,780,215 photos uploaded!

WunderBlogs® & News

Nearby

Air Quality

  Air Quality AQ Index Pollutant
Not available.

Snow Depth

Station Depth Elevation

Earthquake Activity

City Distance Mag. Time & Date
Minimum magnitude displayed is 2.5.

Coastal Water Temperatures

Place Temperature

Nearby Weather Stations